Time,TemperatureF,DewpointF,PressureIn,WindDirection,WindDirectionDegrees,WindSpeedMPH,WindSpeedGustMPH,Humidity,HourlyPrecipIn,Conditions,Clouds,dailyrainin,SoftwareType,DateUTC
2013-02-17 00:00:00,28.2,1.4,29.72,WNW,290,8.1,8.1,31,0.00,RA,,0.00,WeatherDisplay:10.37,2013-02-17 05:00:00,
2013-02-17 00:01:00,28.2,1.4,29.72,NNW,332,8.1,8.1,31,0.00,RA,,0.00,WeatherDisplay:10.37,2013-02-17 05:01:00,
2013-02-17 00:06:00,28.2,1.4,29.72,WNW,301,3.5,3.6,31,0.00,RA,,0.00,WeatherDisplay:10.37,2013-02-17 05:06:00,
2013-02-17 00:11:00,28.0,1.2,29.72,WSW,255,4.6,4.6,31,0.00,CLR,,0.00,WeatherDisplay:10.37,2013-02-17 05:11:00,
2013-02-17 00:16:00,28.0,1.2,29.72,North,1,3.5,3.5,31,0.00,CLR,,0.00,WeatherDisplay:10.37,2013-02-17 05:16:00,
2013-02-17 00:21:00,28.0,1.2,29.72,NW,316,3.5,3.5,31,0.00,CLR,,0.00,WeatherDisplay:10.37,2013-02-17 05:21:00,
2013-02-17 00:26:00,27.9,1.1,29.69,WNW,284,5.8,5.8,31,0.00,CLR,,0.00,WeatherDisplay:10.37,2013-02-17 05:26:00,
2013-02-17 00:31:00,27.9,1.1,29.69,North,353,3.5,3.5,31,0.00,CLR,,0.00,WeatherDisplay:10.37,2013-02-17 05:31:00,
2013-02-17 00:36:00,27.9,1.1,29.69,NW,322,5.8,5.8,31,0.00,CLR,,0.00,WeatherDisplay:10.37,2013-02-17 05:36:00,
2013-02-17 00:41:00,27.7,0.9,29.69,WNW,292,3.5,3.5,31,0.00,CLR,,0.00,WeatherDisplay:10.37,2013-02-17 05:41:00,
2013-02-17 00:46:00,27.7,0.9,29.69,North,353,3.5,3.6,31,0.00,CLR,,0.00,WeatherDisplay:10.37,2013-02-17 05:46:00,
2013-02-17 00:51:00,27.5,0.8,29.69,North,2,3.5,3.5,31,0.00,CLR,,0.00,WeatherDisplay:10.37,2013-02-17 05:51:00,
2013-02-17 00:56:00,27.5,0.8,29.66,WNW,296,3.5,3.5,31,0.00,CLR,,0.00,WeatherDisplay:10.37,2013-02-17 05:56:00,
2013-02-17 01:01:00,27.5,0.8,29.66,NNE,19,3.5,3.5,31,0.00,CLR,,0.00,WeatherDisplay:10.37,2013-02-17 06:01:00,
2013-02-17 01:06:00,27.5,0.8,29.66,NW,314,0.0,0.0,31,0.00,CLR,,0.00,WeatherDisplay:10.37,2013-02-17 06:06:00,
2013-02-17 01:11:00,27.5,0.8,29.69,North,7,2.3,3.1,31,0.00,CLR,,0.00,WeatherDisplay:10.37,2013-02-17 06:11:00,
2013-02-17 01:16:00,27.5,0.8,29.69,NNE,25,2.3,0.0,31,0.00,CLR,,0.00,WeatherDisplay:10.37,2013-02-17 06:16:00,
2013-02-17 01:21:00,27.5,0.8,29.69,NNW,327,2.3,0.0,31,0.00,CLR,,0.00,WeatherDisplay:10.37,2013-02-17 06:21:00,
2013-02-17 01:26:00,27.3,0.6,29.66,WNW,291,4.6,4.6,31,0.00,CLR,,0.00,WeatherDisplay:10.37,2013-02-17 06:26:00,
2013-02-17 01:31:00,27.3,2.0,29.66,WNW,290,3.5,0.0,33,0.00,CLR,,0.00,WeatherDisplay:10.37,2013-02-17 06:31:00,
2013-02-17 01:36:00,27.3,0.6,29.66,WNW,293,2.3,0.0,31,0.00,CLR,,0.00,WeatherDisplay:10.37,2013-02-17 06:36:00,
2013-02-17 01:41:00,27.3,0.6,29.69,WNW,289,2.3,4.0,31,0.00,CLR,,0.00,WeatherDisplay:10.37,2013-02-17 06:41:00,
2013-02-17 01:46:00,27.1,0.4,29.69,North,357,3.5,3.5,31,0.00,CLR,,0.00,WeatherDisplay:10.37,2013-02-17 06:46:00,
2013-02-17 01:52:00,27.0,0.3,29.69,NNW,340,4.6,4.6,31,0.00,CLR,,0.00,WeatherDisplay:10.37,2013-02-17 06:52:00,
2013-02-17 01:57:00,27.0,0.3,29.69,West,267,3.5,3.5,31,0.00,CLR,,0.00,WeatherDisplay:10.37,2013-02-17 06:57:00,
2013-02-17 02:02:00,26.8,0.1,29.66,NNE,31,5.8,5.8,31,0.00,CLR,,0.00,WeatherDisplay:10.37,2013-02-17 07:02:00,
2013-02-17 02:07:00,26.6,0.0,29.66,NW,314,6.9,6.9,31,0.00,CLR,,0.00,WeatherDisplay:10.37,2013-02-17 07:07:00,
2013-02-17 02:12:00,26.6,0.0,29.63,West,277,3.5,3.5,31,0.00,CLR,,0.00,WeatherDisplay:10.37,2013-02-17 07:12:00,
2013-02-17 02:17:00,26.4,-0.2,29.63,WSW,249,0.0,2.7,31,0.00,CLR,,0.00,WeatherDisplay:10.37,2013-02-17 07:17:00,
2013-02-17 02:22:00,26.2,-0.3,29.63,WNW,286,3.5,3.5,31,0.00,CLR,,0.00,WeatherDisplay:10.37,2013-02-17 07:22:00,
2013-02-17 02:27:00,26.2,-0.3,29.66,WNW,285,3.5,3.5,31,0.00,CLR,,0.00,WeatherDisplay:10.37,2013-02-17 07:27:00,
2013-02-17 02:32:00,26.1,-0.5,29.66,NNE,15,5.8,5.8,31,0.00,CLR,,0.00,WeatherDisplay:10.37,2013-02-17 07:32:00,
2013-02-17 02:37:00,26.1,-0.5,29.66,NW,313,2.3,2.3,31,0.00,CLR,,0.00,WeatherDisplay:10.37,2013-02-17 07:37:00,
2013-02-17 02:42:00,26.1,-0.5,29.63,NNE,12,3.5,3.5,31,0.00,CLR,,0.00,WeatherDisplay:10.37,2013-02-17 07:42:00,
2013-02-17 02:47:00,25.9,-0.7,29.63,NNE,22,3.5,4.5,31,0.00,CLR,,0.00,WeatherDisplay:10.37,2013-02-17 07:47:00,
2013-02-17 02:52:00,25.9,-0.7,29.63,NW,316,4.6,4.6,31,0.00,CLR,,0.00,WeatherDisplay:10.37,2013-02-17 07:52:00,
2013-02-17 02:57:00,25.7,-0.8,29.63,NW,305,4.6,4.6,31,0.00,CLR,,0.00,WeatherDisplay:10.37,2013-02-17 07:57:00,
2013-02-17 03:02:00,25.5,-1.0,29.63,NW,321,4.6,4.6,31,0.00,CLR,,0.00,WeatherDisplay:10.37,2013-02-17 08:02:00,
2013-02-17 03:07:00,25.5,-1.0,29.63,WNW,290,3.5,3.5,31,0.00,CLR,,0.00,WeatherDisplay:10.37,2013-02-17 08:07:00,
2013-02-17 03:12:00,25.5,-1.0,29.63,NW,318,3.5,3.5,31,0.00,CLR,,0.00,WeatherDisplay:10.37,2013-02-17 08:12:00,
2013-02-17 03:17:00,25.5,-1.0,29.63,NW,325,8.1,8.1,31,0.00,CLR,,0.00,WeatherDisplay:10.37,2013-02-17 08:17:00,
2013-02-17 03:22:00,25.5,-1.0,29.63,NNW,342,3.5,3.6,31,0.00,CLR,,0.00,WeatherDisplay:10.37,2013-02-17 08:22:00,
2013-02-17 03:27:00,25.3,-1.1,29.60,West,271,5.8,5.8,31,0.00,CLR,,0.00,WeatherDisplay:10.37,2013-02-17 08:27:00,
2013-02-17 03:32:00,25.3,-1.1,29.60,West,262,5.8,5.8,31,0.00,CLR,,0.00,WeatherDisplay:10.37,2013-02-17 08:32:00,
2013-02-17 03:37:00,25.3,-1.1,29.60,NW,305,4.6,4.6,31,0.00,CLR,,0.00,WeatherDisplay:10.37,2013-02-17 08:37:00,
2013-02-17 03:42:00,25.0,-1.5,29.60,West,274,2.3,4.0,31,0.00,CLR,,0.00,WeatherDisplay:10.37,2013-02-17 08:42:00,
2013-02-17 03:47:00,24.6,-1.1,29.60,NW,305,3.5,3.6,32,0.00,CLR,,0.00,WeatherDisplay:10.37,2013-02-17 08:47:00,
2013-02-17 03:52:00,24.3,-1.4,29.60,North,5,6.9,6.9,32,0.00,CLR,,0.00,WeatherDisplay:10.37,2013-02-17 08:52:00,
2013-02-17 03:57:00,23.7,-1.9,29.60,NNW,343,3.5,3.5,32,0.00,CLR,,0.00,WeatherDisplay:10.37,2013-02-17 08:57:00,
2013-02-17 04:02:00,23.5,-2.1,29.60,NNW,345,3.5,3.5,32,0.00,CLR,,0.00,WeatherDisplay:10.37,2013-02-17 09:02:00,
2013-02-17 04:07:00,23.2,-2.4,29.60,North,4,3.5,3.6,32,0.00,CLR,,0.00,WeatherDisplay:10.37,2013-02-17 09:07:00,
2013-02-17 04:12:00,23.2,-2.4,29.60,North,357,3.5,3.5,32,0.00,CLR,,0.00,WeatherDisplay:10.37,2013-02-17 09:12:00,
2013-02-17 04:17:00,23.2,-2.4,29.60,NNW,330,8.1,8.1,32,0.00,CLR,,0.00,WeatherDisplay:10.37,2013-02-17 09:17:00,
2013-02-17 04:22:00,23.0,-2.5,29.60,NNE,17,2.3,0.0,32,0.00,CLR,,0.00,WeatherDisplay:10.37,2013-02-17 09:22:00,
2013-02-17 04:27:00,23.0,-2.5,29.60,SW,233,8.1,8.1,32,0.00,CLR,,0.00,WeatherDisplay:10.37,2013-02-17 09:27:00,
2013-02-17 04:32:00,22.8,-2.7,29.60,West,280,5.8,5.8,32,0.00,CLR,,0.00,WeatherDisplay:10.37,2013-02-17 09:32:00,
2013-02-17 04:37:00,22.8,-2.7,29.60,West,266,4.6,4.9,32,0.00,CLR,,0.00,WeatherDisplay:10.37,2013-02-17 09:37:00,
2013-02-17 04:42:00,22.8,-2.7,29.57,North,353,3.5,3.5,32,0.00,CLR,,0.00,WeatherDisplay:10.37,2013-02-17 09:42:00,
2013-02-17 04:47:00,22.8,-2.7,29.57,WNW,285,3.5,0.0,32,0.00,CLR,,0.00,WeatherDisplay:10.37,2013-02-17 09:47:00,
2013-02-17 04:52:00,22.8,-2.7,29.57,West,266,3.5,3.5,32,0.00,CLR,,0.00,WeatherDisplay:10.37,2013-02-17 09:52:00,
2013-02-17 04:57:00,22.8,-2.7,29.57,NE,36,5.8,5.8,32,0.00,CLR,,0.00,WeatherDisplay:10.37,2013-02-17 09:57:00,
2013-02-17 05:02:00,22.8,-2.7,29.57,WNW,295,3.5,3.6,32,0.00,CLR,,0.00,WeatherDisplay:10.37,2013-02-17 10:02:00,
2013-02-17 05:07:00,22.8,-2.7,29.57,North,9,3.5,0.0,32,0.00,CLR,,0.00,WeatherDisplay:10.37,2013-02-17 10:07:00,
2013-02-17 05:12:00,22.8,-2.7,29.57,NW,322,4.6,4.6,32,0.00,CLR,,0.00,WeatherDisplay:10.37,2013-02-17 10:12:00,
2013-02-17 05:17:00,22.8,-2.7,29.57,NW,306,5.8,5.8,32,0.00,CLR,,0.00,WeatherDisplay:10.37,2013-02-17 10:17:00,
2013-02-17 05:22:00,22.5,-3.0,29.57,North,357,9.2,9.2,32,0.00,CLR,,0.00,WeatherDisplay:10.37,2013-02-17 10:22:00,
2013-02-17 05:27:00,22.3,-3.2,29.57,WNW,292,3.5,3.6,32,0.00,CLR,,0.00,WeatherDisplay:10.37,2013-02-17 10:27:00,
2013-02-17 05:32:00,22.3,-3.2,29.57,WNW,300,8.1,8.1,32,0.00,CLR,,0.00,WeatherDisplay:10.37,2013-02-17 10:32:00,
2013-02-17 05:37:00,21.7,-3.6,29.57,WNW,294,8.1,8.1,32,0.00,CLR,,0.00,WeatherDisplay:10.37,2013-02-17 10:37:00,
2013-02-17 05:42:00,21.4,-4.0,29.55,NNE,20,4.6,4.6,32,0.00,CLR,,0.00,WeatherDisplay:10.37,2013-02-17 10:42:00,
2013-02-17 05:47:00,21.2,-4.1,29.55,NNE,27,5.8,5.8,32,0.00,CLR,,0.00,WeatherDisplay:10.37,2013-02-17 10:47:00,
2013-02-17 05:52:00,21.0,-4.3,29.55,NW,324,3.5,3.6,32,0.00,CLR,,0.00,WeatherDisplay:10.37,2013-02-17 10:52:00,
2013-02-17 05:57:00,20.8,-4.4,29.55,North,357,8.0,8.0,32,0.00,CLR,,0.00,WeatherDisplay:10.37,2013-02-17 10:57:00,
2013-02-17 06:02:00,20.5,-4.8,29.55,WNW,290,3.5,3.6,32,0.00,CLR,,0.00,WeatherDisplay:10.37,2013-02-17 11:02:00,
2013-02-17 06:07:00,20.3,-4.9,29.55,NNW,335,5.8,5.8,32,0.00,CLR,,0.00,WeatherDisplay:10.37,2013-02-17 11:07:00,
2013-02-17 06:12:00,20.1,-5.1,29.55,NW,324,9.2,9.2,32,0.00,CLR,,0.00,WeatherDisplay:10.37,2013-02-17 11:12:00,
2013-02-17 06:17:00,19.9,-3.4,29.55,WSW,252,3.5,3.5,35,0.00,CLR,,0.00,WeatherDisplay:10.37,2013-02-17 11:17:00,
2013-02-17 06:22:00,19.8,-3.5,29.55,NNW,329,10.4,10.4,35,0.00,CLR,,0.00,WeatherDisplay:10.37,2013-02-17 11:22:00,
2013-02-17 06:27:00,19.6,-3.7,29.55,North,6,5.8,5.8,35,0.00,CLR,,0.00,WeatherDisplay:10.37,2013-02-17 11:27:00,
2013-02-17 06:32:00,19.6,-3.7,29.55,North,353,3.5,3.6,35,0.00,CLR,,0.00,WeatherDisplay:10.37,2013-02-17 11:32:00,
2013-02-17 06:37:00,19.4,-3.8,29.55,NNW,333,11.5,11.5,35,0.00,CLR,,0.00,WeatherDisplay:10.37,2013-02-17 11:37:00,
2013-02-17 06:42:00,19.4,-3.8,29.51,SSW,203,5.8,5.8,35,0.00,CLR,,0.00,WeatherDisplay:10.37,2013-02-17 11:42:00,
2013-02-17 06:47:00,19.2,-4.0,29.51,North,353,8.1,8.1,35,0.00,CLR,,0.00,WeatherDisplay:10.37,2013-02-17 11:47:00,
2013-02-17 06:52:00,19.0,-4.2,29.49,NNW,341,9.2,9.2,35,0.00,CLR,,0.00,WeatherDisplay:10.37,2013-02-17 11:52:00,
2013-02-17 06:57:00,19.0,-4.2,29.49,WNW,288,5.8,5.8,35,0.00,CLR,,0.00,WeatherDisplay:10.37,2013-02-17 11:57:00,
2013-02-17 07:02:00,18.9,-4.3,29.49,NNW,336,4.0,4.0,35,0.00,CLR,,0.00,WeatherDisplay:10.37,2013-02-17 12:02:00,
2013-02-17 07:07:00,18.9,-4.3,29.49,North,353,3.5,4.0,35,0.00,CLR,,0.00,WeatherDisplay:10.37,2013-02-17 12:07:00,
2013-02-17 07:12:00,18.7,-4.5,29.49,WNW,294,5.8,5.8,35,0.00,CLR,,0.00,WeatherDisplay:10.37,2013-02-17 12:12:00,
2013-02-17 07:17:00,18.5,-4.7,29.49,NNW,340,8.1,8.1,35,0.00,CLR,,0.00,WeatherDisplay:10.37,2013-02-17 12:17:00,
2013-02-17 07:22:00,18.5,-4.7,29.49,NNE,17,4.0,4.5,35,0.00,CLR,,0.00,WeatherDisplay:10.37,2013-02-17 12:22:00,
2013-02-17 07:27:00,18.5,-4.7,29.49,WNW,286,5.8,5.8,35,0.00,CLR,,0.00,WeatherDisplay:10.37,2013-02-17 12:27:00,
2013-02-17 07:32:00,18.5,-4.7,29.49,WNW,297,5.8,5.8,35,0.00,CLR,,0.00,WeatherDisplay:10.37,2013-02-17 12:32:00,
2013-02-17 07:37:00,18.3,-4.8,29.49,WNW,289,6.9,8.0,35,0.00,CLR,,0.00,WeatherDisplay:10.37,2013-02-17 12:37:00,
2013-02-17 07:42:00,18.1,-5.0,29.49,WNW,284,6.7,6.7,35,0.00,CLR,,0.00,WeatherDisplay:10.37,2013-02-17 12:42:00,
2013-02-17 07:47:00,18.3,-4.8,29.49,North,357,3.5,3.5,35,0.00,CLR,,0.00,WeatherDisplay:10.37,2013-02-17 12:47:00,
2013-02-17 07:52:00,18.1,-5.0,29.49,NNW,343,5.8,5.8,35,0.00,CLR,,0.00,WeatherDisplay:10.37,2013-02-17 12:52:00,
2013-02-17 07:57:00,18.1,-5.0,29.46,NW,326,3.5,3.5,35,0.00,CLR,,0.00,WeatherDisplay:10.37,2013-02-17 12:57:00,
2013-02-17 08:02:00,18.1,-6.2,29.46,WSW,257,10.4,10.4,33,0.00,CLR,,0.00,WeatherDisplay:10.37,2013-02-17 13:02:00,
2013-02-17 08:07:00,18.1,-6.2,29.46,North,10,6.9,6.9,33,0.00,CLR,,0.00,WeatherDisplay:10.37,2013-02-17 13:07:00,
2013-02-17 08:12:00,18.1,-5.0,29.46,NNW,335,3.5,4.0,35,0.00,CLR,,0.00,WeatherDisplay:10.37,2013-02-17 13:12:00,
2013-02-17 08:17:00,18.1,-5.0,29.46,WNW,302,5.8,5.8,35,0.00,CLR,,0.00,WeatherDisplay:10.37,2013-02-17 13:17:00,
2013-02-17 08:22:00,18.1,-6.2,29.46,NW,324,5.8,7.2,33,0.00,CLR,,0.00,WeatherDisplay:10.37,2013-02-17 13:22:00,
2013-02-17 08:27:00,18.1,-5.0,29.46,NW,309,5.8,5.8,35,0.00,CLR,,0.00,WeatherDisplay:10.37,2013-02-17 13:27:00,
2013-02-17 08:32:00,18.3,-6.0,29.46,NNE,19,8.1,8.1,33,0.00,CLR,,0.00,WeatherDisplay:10.37,2013-02-17 13:32:00,
2013-02-17 08:37:00,18.3,-6.0,29.46,NNW,348,5.8,5.8,33,0.00,CLR,,0.00,WeatherDisplay:10.37,2013-02-17 13:37:00,
2013-02-17 08:42:00,18.1,-6.2,29.43,NW,310,6.9,6.9,33,0.00,CLR,,0.00,WeatherDisplay:10.37,2013-02-17 13:42:00,
2013-02-17 08:47:00,18.1,-5.0,29.43,North,353,9.2,9.2,35,0.00,CLR,,0.00,WeatherDisplay:10.37,2013-02-17 13:47:00,
2013-02-17 08:52:00,18.1,-6.2,29.43,NNW,340,8.1,8.1,33,0.00,CLR,,0.00,WeatherDisplay:10.37,2013-02-17 13:52:00,
2013-02-17 08:57:00,18.1,-6.2,29.43,North,353,5.8,5.8,33,0.00,CLR,,0.00,WeatherDisplay:10.37,2013-02-17 13:57:00,
2013-02-17 09:02:00,18.3,-4.8,29.43,North,357,4.6,4.6,35,0.00,CLR,,0.00,WeatherDisplay:10.37,2013-02-17 14:02:00,
2013-02-17 09:07:00,18.1,-6.2,29.43,NNW,345,5.8,5.8,33,0.00,CLR,,0.00,WeatherDisplay:10.37,2013-02-17 14:07:00,
2013-02-17 09:12:00,18.3,-6.0,29.43,NW,312,8.1,8.1,33,0.00,CLR,,0.00,WeatherDisplay:10.37,2013-02-17 14:12:00,
2013-02-17 09:17:00,18.3,-6.0,29.43,WSW,239,6.9,6.9,33,0.00,CLR,,0.00,WeatherDisplay:10.37,2013-02-17 14:17:00,
2013-02-17 09:22:00,18.3,-6.0,29.43,WNW,296,5.8,6.7,33,0.00,CLR,,0.00,WeatherDisplay:10.37,2013-02-17 14:22:00,
2013-02-17 09:27:00,18.3,-6.0,29.40,West,277,8.1,8.1,33,0.00,CLR,,0.00,WeatherDisplay:10.37,2013-02-17 14:27:00,
2013-02-17 09:32:00,18.5,-5.9,29.40,WNW,290,3.5,4.9,33,0.00,CLR,,0.00,WeatherDisplay:10.37,2013-02-17 14:32:00,
2013-02-17 09:37:00,18.3,-6.0,29.40,NNW,331,3.5,4.5,33,0.00,CLR,,0.00,WeatherDisplay:10.37,2013-02-17 14:37:00,
2013-02-17 09:42:00,18.3,-6.0,29.40,West,275,12.7,12.7,33,0.00,CLR,,0.00,WeatherDisplay:10.37,2013-02-17 14:42:00,
2013-02-17 09:47:00,18.3,-6.0,29.40,North,357,5.8,8.0,33,0.00,CLR,,0.00,WeatherDisplay:10.37,2013-02-17 14:47:00,
2013-02-17 09:52:00,18.3,-6.0,29.40,WNW,303,8.1,8.1,33,0.00,CLR,,0.00,WeatherDisplay:10.37,2013-02-17 14:52:00,
2013-02-17 09:57:00,18.5,-5.9,29.40,NNW,328,10.4,10.4,33,0.00,CLR,,0.00,WeatherDisplay:10.37,2013-02-17 14:57:00,
2013-02-17 10:02:00,18.5,-5.9,29.40,West,276,8.1,8.1,33,0.00,CLR,,0.00,WeatherDisplay:10.37,2013-02-17 15:02:00,
2013-02-17 10:07:00,18.5,-5.9,29.40,WNW,288,8.1,8.1,33,0.00,CLR,,0.00,WeatherDisplay:10.37,2013-02-17 15:07:00,
2013-02-17 10:12:00,18.5,-5.9,29.40,North,357,12.7,12.7,33,0.00,CLR,,0.00,WeatherDisplay:10.37,2013-02-17 15:12:00,
2013-02-17 10:17:00,18.5,-5.9,29.40,NNW,327,3.5,5.8,33,0.00,CLR,,0.00,WeatherDisplay:10.37,2013-02-17 15:17:00,
2013-02-17 10:22:00,18.5,-5.9,29.40,NNE,12,5.8,5.8,33,0.00,CLR,,0.00,WeatherDisplay:10.37,2013-02-17 15:22:00,
2013-02-17 10:27:00,19.0,-5.4,29.37,North,357,11.5,11.5,33,0.00,CLR,,0.00,WeatherDisplay:10.37,2013-02-17 15:27:00,
2013-02-17 10:32:00,18.7,-5.7,29.37,West,277,8.1,8.1,33,0.00,CLR,,0.00,WeatherDisplay:10.37,2013-02-17 15:32:00,
2013-02-17 10:37:00,18.9,-5.6,29.37,WNW,282,10.4,10.4,33,0.00,CLR,,0.00,WeatherDisplay:10.37,2013-02-17 15:37:00,
2013-02-17 10:42:00,19.2,-5.2,29.37,NNW,331,9.2,9.2,33,0.00,CLR,,0.00,WeatherDisplay:10.37,2013-02-17 15:42:00,
2013-02-17 10:47:00,19.4,-5.1,29.37,NNE,19,5.8,5.8,33,0.00,CLR,,0.00,WeatherDisplay:10.37,2013-02-17 15:47:00,
2013-02-17 10:52:00,19.6,-5.6,29.37,West,281,11.5,11.5,32,0.00,CLR,,0.00,WeatherDisplay:10.37,2013-02-17 15:52:00,
2013-02-17 10:57:00,19.4,-5.1,29.37,West,261,8.1,8.1,33,0.00,CLR,,0.00,WeatherDisplay:10.37,2013-02-17 15:57:00,
2013-02-17 11:02:00,19.4,-5.1,29.37,North,1,8.1,8.1,33,0.00,CLR,,0.00,WeatherDisplay:10.37,2013-02-17 16:02:00,
2013-02-17 11:07:00,19.9,-5.2,29.37,NW,318,9.2,9.2,32,0.00,CLR,,0.00,WeatherDisplay:10.37,2013-02-17 16:07:00,
2013-02-17 11:12:00,20.1,-5.1,29.37,NW,310,8.1,8.1,32,0.00,CLR,,0.00,WeatherDisplay:10.37,2013-02-17 16:12:00,
2013-02-17 11:17:00,20.1,-5.1,29.37,NNW,340,5.8,7.6,32,0.00,CLR,,0.00,WeatherDisplay:10.37,2013-02-17 16:17:00,
2013-02-17 11:22:00,20.3,-4.9,29.37,NNW,338,10.4,10.4,32,0.00,CLR,,0.00,WeatherDisplay:10.37,2013-02-17 16:22:00,
2013-02-17 11:27:00,20.3,-4.9,29.37,North,353,5.8,5.8,32,0.00,CLR,,0.00,WeatherDisplay:10.37,2013-02-17 16:27:00,
2013-02-17 11:32:00,20.7,-4.6,29.37,WNW,293,3.6,4.0,32,0.00,CLR,,0.00,WeatherDisplay:10.37,2013-02-17 16:32:00,
2013-02-17 11:37:00,20.5,-4.8,29.37,West,276,9.2,9.2,32,0.00,CLR,,0.00,WeatherDisplay:10.37,2013-02-17 16:37:00,
2013-02-17 11:42:00,20.3,-4.9,29.37,NW,322,10.4,10.4,32,0.00,CLR,,0.00,WeatherDisplay:10.37,2013-02-17 16:42:00,
2013-02-17 11:47:00,20.5,-4.8,29.37,NW,317,5.8,6.7,32,0.00,CLR,,0.00,WeatherDisplay:10.37,2013-02-17 16:47:00,
2013-02-17 11:52:00,20.8,-4.4,29.37,NW,322,10.4,10.4,32,0.00,CLR,,0.00,WeatherDisplay:10.37,2013-02-17 16:52:00,
2013-02-17 11:57:00,20.7,-4.6,29.37,WNW,292,4.6,5.4,32,0.00,CLR,,0.00,WeatherDisplay:10.37,2013-02-17 16:57:00,
2013-02-17 12:02:00,20.7,-4.6,29.37,NW,307,15.0,15.0,32,0.00,CLR,,0.00,WeatherDisplay:10.37,2013-02-17 17:02:00,
2013-02-17 12:07:00,21.2,-4.1,29.37,North,353,9.2,9.2,32,0.00,CLR,,0.00,WeatherDisplay:10.37,2013-02-17 17:07:00,
2013-02-17 12:12:00,21.0,-4.3,29.37,NW,324,10.4,10.4,32,0.00,CLR,,0.00,WeatherDisplay:10.37,2013-02-17 17:12:00,
2013-02-17 12:17:00,21.0,-4.3,29.37,WNW,283,9.2,9.2,32,0.00,CLR,,0.00,WeatherDisplay:10.37,2013-02-17 17:17:00,
2013-02-17 12:22:00,21.2,-4.1,29.37,North,2,9.2,9.2,32,0.00,CLR,,0.00,WeatherDisplay:10.37,2013-02-17 17:22:00,
2013-02-17 12:27:00,21.2,-4.1,29.37,WNW,291,5.8,6.7,32,0.00,CLR,,0.00,WeatherDisplay:10.37,2013-02-17 17:27:00,
2013-02-17 12:32:00,21.2,-4.1,29.37,NNW,335,11.5,11.5,32,0.00,CLR,,0.00,WeatherDisplay:10.37,2013-02-17 17:32:00,
2013-02-17 12:37:00,21.2,-4.1,29.37,NNW,334,5.8,5.8,32,0.00,CLR,,0.00,WeatherDisplay:10.37,2013-02-17 17:37:00,
2013-02-17 12:42:00,21.2,-4.1,29.37,WNW,292,8.1,9.2,32,0.00,CLR,,0.00,WeatherDisplay:10.37,2013-02-17 17:42:00,
2013-02-17 12:47:00,21.2,-4.1,29.37,North,357,9.2,9.2,32,0.00,CLR,,0.00,WeatherDisplay:10.37,2013-02-17 17:47:00,
2013-02-17 12:52:00,21.2,-4.1,29.37,North,357,3.5,3.5,32,0.00,CLR,,0.00,WeatherDisplay:10.37,2013-02-17 17:52:00,
2013-02-17 12:57:00,21.7,-3.6,29.37,NNE,25,11.5,11.5,32,0.00,CLR,,0.00,WeatherDisplay:10.37,2013-02-17 17:57:00,
2013-02-17 13:02:00,21.2,-2.2,29.37,NNE,22,4.6,6.3,35,0.00,CLR,,0.00,WeatherDisplay:10.37,2013-02-17 18:02:00,
2013-02-17 13:07:00,21.6,-3.8,29.37,NNW,345,5.8,5.8,32,0.00,CLR,,0.00,WeatherDisplay:10.37,2013-02-17 18:07:00,
2013-02-17 13:12:00,21.4,-4.0,29.37,NW,319,8.1,8.1,32,0.00,CLR,,0.00,WeatherDisplay:10.37,2013-02-17 18:12:00,
2013-02-17 13:17:00,21.4,-4.0,29.37,NNW,335,13.8,13.8,32,0.00,CLR,,0.00,WeatherDisplay:10.37,2013-02-17 18:17:00,
2013-02-17 13:22:00,21.2,-4.1,29.37,West,272,9.2,9.2,32,0.00,CLR,,0.00,WeatherDisplay:10.37,2013-02-17 18:22:00,
2013-02-17 13:27:00,21.6,-3.8,29.37,NW,325,13.8,13.8,32,0.00,CLR,,0.00,WeatherDisplay:10.37,2013-02-17 18:27:00,
2013-02-17 13:32:00,21.4,-4.0,29.37,West,263,12.7,12.7,32,0.00,CLR,,0.00,WeatherDisplay:10.37,2013-02-17 18:32:00,
2013-02-17 13:37:00,21.7,-3.6,29.37,WNW,283,4.6,4.6,32,0.00,CLR,,0.00,WeatherDisplay:10.37,2013-02-17 18:37:00,
2013-02-17 13:42:00,21.9,-3.5,29.37,NW,315,8.1,8.1,32,0.00,CLR,,0.00,WeatherDisplay:10.37,2013-02-17 18:42:00,
2013-02-17 13:47:00,22.1,-3.3,29.37,WNW,296,8.1,8.1,32,0.00,CLR,,0.00,WeatherDisplay:10.37,2013-02-17 18:47:00,
2013-02-17 13:52:00,22.1,-3.3,29.37,NNW,330,11.5,11.5,32,0.00,CLR,,0.00,WeatherDisplay:10.37,2013-02-17 18:52:00,
2013-02-17 13:57:00,21.7,-3.6,29.37,NW,309,5.8,5.8,32,0.00,CLR,,0.00,WeatherDisplay:10.37,2013-02-17 18:57:00,
2013-02-17 14:02:00,21.9,-3.5,29.37,NNW,331,8.1,8.1,32,0.00,CLR,,0.00,WeatherDisplay:10.37,2013-02-17 19:02:00,
2013-02-17 14:07:00,21.7,-3.6,29.37,WNW,298,12.7,12.7,32,0.00,CLR,,0.00,WeatherDisplay:10.37,2013-02-17 19:07:00,
2013-02-17 14:12:00,22.1,-3.3,29.37,NW,307,12.7,12.7,32,0.00,CLR,,0.00,WeatherDisplay:10.37,2013-02-17 19:12:00,
2013-02-17 14:17:00,22.3,-3.2,29.37,NNW,329,10.4,10.4,32,0.00,CLR,,0.00,WeatherDisplay:10.37,2013-02-17 19:17:00,
2013-02-17 14:22:00,22.1,-3.3,29.37,NW,312,11.5,11.5,32,0.00,CLR,,0.00,WeatherDisplay:10.37,2013-02-17 19:22:00,
2013-02-17 14:27:00,21.9,-3.5,29.37,North,353,11.5,11.5,32,0.00,CLR,,0.00,WeatherDisplay:10.37,2013-02-17 19:27:00,
2013-02-17 14:32:00,21.7,-3.6,29.37,WNW,288,10.4,10.4,32,0.00,CLR,,0.00,WeatherDisplay:10.37,2013-02-17 19:32:00,
2013-02-17 14:37:00,21.6,-3.8,29.37,West,264,9.2,9.6,32,0.00,CLR,,0.00,WeatherDisplay:10.37,2013-02-17 19:37:00,
2013-02-17 14:42:00,21.7,-3.6,29.37,WNW,300,12.7,13.6,32,0.00,CLR,,0.00,WeatherDisplay:10.37,2013-02-17 19:42:00,
2013-02-17 14:47:00,21.6,-3.8,29.37,NNW,329,11.5,12.7,32,0.00,CLR,,0.00,WeatherDisplay:10.37,2013-02-17 19:47:00,
2013-02-17 14:52:00,21.7,-3.6,29.37,WNW,303,10.4,10.4,32,0.00,CLR,,0.00,WeatherDisplay:10.37,2013-02-17 19:52:00,
2013-02-17 14:57:00,21.7,-3.6,29.37,WSW,252,11.5,11.5,32,0.00,CLR,,0.00,WeatherDisplay:10.37,2013-02-17 19:57:00,
2013-02-17 15:02:00,21.9,-3.5,29.37,NNW,343,8.1,8.1,32,0.00,CLR,,0.00,WeatherDisplay:10.37,2013-02-17 20:02:00,
2013-02-17 15:07:00,21.9,-3.5,29.37,NW,320,12.7,12.7,32,0.00,CLR,,0.00,WeatherDisplay:10.37,2013-02-17 20:07:00,
2013-02-17 15:12:00,21.7,-3.6,29.40,West,274,9.2,9.2,32,0.00,CLR,,0.00,WeatherDisplay:10.37,2013-02-17 20:12:00,
2013-02-17 15:17:00,21.9,-3.5,29.40,North,350,5.8,5.8,32,0.00,CLR,,0.00,WeatherDisplay:10.37,2013-02-17 20:17:00,
2013-02-17 15:22:00,21.9,-3.5,29.40,North,357,12.7,12.7,32,0.00,CLR,,0.00,WeatherDisplay:10.37,2013-02-17 20:22:00,
2013-02-17 15:27:00,21.7,-3.6,29.40,West,281,11.5,11.5,32,0.00,CLR,,0.00,WeatherDisplay:10.37,2013-02-17 20:27:00,
2013-02-17 15:32:00,21.9,-3.5,29.40,WSW,241,9.2,9.2,32,0.00,CLR,,0.00,WeatherDisplay:10.37,2013-02-17 20:32:00,
2013-02-17 15:37:00,21.9,-3.5,29.40,NNW,334,6.9,6.9,32,0.00,CLR,,0.00,WeatherDisplay:10.37,2013-02-17 20:37:00,
2013-02-17 15:42:00,21.6,-3.8,29.40,NW,326,5.8,6.7,32,0.00,CLR,,0.00,WeatherDisplay:10.37,2013-02-17 20:42:00,
2013-02-17 15:47:00,21.7,-3.6,29.40,WSW,248,8.1,8.1,32,0.00,CLR,,0.00,WeatherDisplay:10.37,2013-02-17 20:47:00,
2013-02-17 15:52:00,21.4,-4.0,29.40,NW,320,15.0,15.0,32,0.00,CLR,,0.00,WeatherDisplay:10.37,2013-02-17 20:52:00,
2013-02-17 15:57:00,21.4,-2.1,29.40,NW,320,11.5,11.5,35,0.00,CLR,,0.00,WeatherDisplay:10.37,2013-02-17 20:57:00,
2013-02-17 16:02:00,21.4,-4.0,29.40,NW,306,12.7,12.7,32,0.00,CLR,,0.00,WeatherDisplay:10.37,2013-02-17 21:02:00,
2013-02-17 16:07:00,21.4,-4.0,29.40,NNE,14,12.7,12.7,32,0.00,CLR,,0.00,WeatherDisplay:10.37,2013-02-17 21:07:00,
2013-02-17 16:12:00,21.2,-4.1,29.40,NW,326,12.7,12.7,32,0.00,CLR,,0.00,WeatherDisplay:10.37,2013-02-17 21:12:00,
2013-02-17 16:17:00,21.2,-4.1,29.40,North,353,12.7,12.7,32,0.00,CLR,,0.00,WeatherDisplay:10.37,2013-02-17 21:17:00,
2013-02-17 16:22:00,21.2,-4.1,29.40,NW,307,10.4,10.4,32,0.00,CLR,,0.00,WeatherDisplay:10.37,2013-02-17 21:22:00,
2013-02-17 16:27:00,21.2,-4.1,29.40,West,267,15.0,15.0,32,0.00,CLR,,0.00,WeatherDisplay:10.37,2013-02-17 21:27:00,
2013-02-17 16:32:00,21.2,-4.1,29.40,NW,304,8.1,11.4,32,0.00,CLR,,0.00,WeatherDisplay:10.37,2013-02-17 21:32:00,
2013-02-17 16:37:00,21.0,-4.3,29.40,WNW,303,8.1,8.1,32,0.00,CLR,,0.00,WeatherDisplay:10.37,2013-02-17 21:37:00,
2013-02-17 16:42:00,21.0,-4.3,29.43,WNW,286,12.7,12.7,32,0.00,CLR,,0.00,WeatherDisplay:10.37,2013-02-17 21:42:00,
2013-02-17 16:47:00,21.2,-4.1,29.43,WNW,287,3.5,4.0,32,0.00,CLR,,0.00,WeatherDisplay:10.37,2013-02-17 21:47:00,
2013-02-17 16:52:00,21.2,-4.1,29.43,West,274,15.0,15.0,32,0.00,CLR,,0.00,WeatherDisplay:10.37,2013-02-17 21:52:00,
2013-02-17 16:57:00,21.2,-4.1,29.43,NW,325,10.4,10.4,32,0.00,CLR,,0.00,WeatherDisplay:10.37,2013-02-17 21:57:00,
2013-02-17 17:02:00,21.2,-4.1,29.43,North,353,13.8,13.8,32,0.00,CLR,,0.00,WeatherDisplay:10.37,2013-02-17 22:02:00,
2013-02-17 17:07:00,21.2,-4.1,29.43,NW,324,5.8,5.8,32,0.00,CLR,,0.00,WeatherDisplay:10.37,2013-02-17 22:07:00,
2013-02-17 17:12:00,21.2,-4.1,29.46,WNW,289,6.3,6.3,32,0.00,CLR,,0.00,WeatherDisplay:10.37,2013-02-17 22:12:00,
2013-02-17 17:17:00,21.2,-4.1,29.46,West,269,8.1,8.1,32,0.00,CLR,,0.00,WeatherDisplay:10.37,2013-02-17 22:17:00,
2013-02-17 17:22:00,21.2,-4.1,29.46,NW,313,12.7,12.7,32,0.00,CLR,,0.00,WeatherDisplay:10.37,2013-02-17 22:22:00,
2013-02-17 17:27:00,21.0,-4.3,29.46,NNW,332,12.7,12.7,32,0.00,CLR,,0.00,WeatherDisplay:10.37,2013-02-17 22:27:00,
2013-02-17 17:32:00,21.0,-4.3,29.46,NNW,342,11.5,11.5,32,0.00,CLR,,0.00,WeatherDisplay:10.37,2013-02-17 22:32:00,
2013-02-17 17:37:00,20.8,-4.4,29.46,NW,326,12.7,12.7,32,0.00,CLR,,0.00,WeatherDisplay:10.37,2013-02-17 22:37:00,
2013-02-17 17:42:00,20.8,-4.4,29.46,NNW,329,6.9,7.6,32,0.00,CLR,,0.00,WeatherDisplay:10.37,2013-02-17 22:42:00,
2013-02-17 17:47:00,20.8,-4.4,29.46,NNW,335,11.5,11.5,32,0.00,CLR,,0.00,WeatherDisplay:10.37,2013-02-17 22:47:00,
2013-02-17 17:52:00,20.7,-4.6,29.46,West,277,12.7,12.7,32,0.00,CLR,,0.00,WeatherDisplay:10.37,2013-02-17 22:52:00,
2013-02-17 17:57:00,20.7,-4.6,29.46,WSW,250,10.5,10.5,32,0.00,CLR,,0.00,WeatherDisplay:10.37,2013-02-17 22:57:00,
2013-02-17 18:02:00,20.5,-4.8,29.46,WNW,287,11.5,11.5,32,0.00,CLR,,0.00,WeatherDisplay:10.37,2013-02-17 23:02:00,
2013-02-17 18:07:00,20.3,-4.9,29.46,WNW,285,8.1,8.7,32,0.00,CLR,,0.00,WeatherDisplay:10.37,2013-02-17 23:07:00,
2013-02-17 18:12:00,20.3,-4.9,29.46,North,357,5.8,7.2,32,0.00,CLR,,0.00,WeatherDisplay:10.37,2013-02-17 23:12:00,
2013-02-17 18:17:00,20.3,-4.9,29.46,WNW,299,12.7,12.7,32,0.00,CLR,,0.00,WeatherDisplay:10.37,2013-02-17 23:17:00,
2013-02-17 18:22:00,20.3,-4.9,29.46,NW,318,5.8,5.8,32,0.00,CLR,,0.00,WeatherDisplay:10.37,2013-02-17 23:22:00,
2013-02-17 18:28:00,20.3,-4.9,29.49,West,262,15.0,15.0,32,0.00,CLR,,0.00,WeatherDisplay:10.37,2013-02-17 23:28:00,
2013-02-17 18:33:00,20.1,-5.1,29.49,North,353,12.7,12.7,32,0.00,CLR,,0.00,WeatherDisplay:10.37,2013-02-17 23:33:00,
2013-02-17 18:38:00,19.9,-5.2,29.49,NW,312,9.2,9.2,32,0.00,CLR,,0.00,WeatherDisplay:10.37,2013-02-17 23:38:00,
2013-02-17 18:43:00,19.9,-5.2,29.49,NNW,345,11.5,11.5,32,0.00,CLR,,0.00,WeatherDisplay:10.37,2013-02-17 23:43:00,
2013-02-17 18:48:00,19.8,-5.4,29.49,North,353,5.8,5.8,32,0.00,CLR,,0.00,WeatherDisplay:10.37,2013-02-17 23:48:00,
2013-02-17 18:53:00,19.8,-5.4,29.49,NNW,342,8.1,8.1,32,0.00,CLR,,0.00,WeatherDisplay:10.37,2013-02-17 23:53:00,
2013-02-17 18:58:00,19.8,-5.4,29.49,WSW,247,9.2,9.2,32,0.00,CLR,,0.00,WeatherDisplay:10.37,2013-02-17 23:58:00,
2013-02-17 19:03:00,19.8,-5.4,29.49,SW,234,5.8,5.8,32,0.00,CLR,,0.00,WeatherDisplay:10.37,2013-02-18 00:03:00,
2013-02-17 19:08:00,19.8,-5.4,29.49,West,277,5.8,5.8,32,0.00,CLR,,0.00,WeatherDisplay:10.37,2013-02-18 00:08:00,
2013-02-17 19:13:00,19.4,-3.8,29.49,West,280,8.1,8.3,35,0.00,CLR,,0.00,WeatherDisplay:10.37,2013-02-18 00:13:00,
2013-02-17 19:18:00,19.4,-5.1,29.49,WNW,299,15.0,15.0,33,0.00,CLR,,0.00,WeatherDisplay:10.37,2013-02-18 00:18:00,
2013-02-17 19:23:00,19.4,-5.1,29.49,NW,311,8.1,8.1,33,0.00,CLR,,0.00,WeatherDisplay:10.37,2013-02-18 00:23:00,
2013-02-17 19:28:00,19.6,-5.6,29.49,NNW,332,5.8,6.7,32,0.00,CLR,,0.00,WeatherDisplay:10.37,2013-02-18 00:28:00,
2013-02-17 19:33:00,19.6,-5.6,29.49,WNW,297,15.0,15.0,32,0.00,CLR,,0.00,WeatherDisplay:10.37,2013-02-18 00:33:00,
2013-02-17 19:38:00,19.6,-5.6,29.51,North,357,8.1,8.1,32,0.00,CLR,,0.00,WeatherDisplay:10.37,2013-02-18 00:38:00,
2013-02-17 19:43:00,19.4,-5.1,29.51,NW,305,13.8,13.8,33,0.00,CLR,,0.00,WeatherDisplay:10.37,2013-02-18 00:43:00,
2013-02-17 19:48:00,19.4,-5.1,29.51,NNW,331,3.5,4.9,33,0.00,CLR,,0.00,WeatherDisplay:10.37,2013-02-18 00:48:00,
2013-02-17 19:53:00,19.6,-5.6,29.51,NW,307,15.0,15.0,32,0.00,CLR,,0.00,WeatherDisplay:10.37,2013-02-18 00:53:00,
2013-02-17 19:58:00,19.4,-5.1,29.51,NW,317,10.4,10.4,33,0.00,CLR,,0.00,WeatherDisplay:10.37,2013-02-18 00:58:00,
2013-02-17 20:03:00,19.4,-5.1,29.51,WNW,299,10.4,10.4,33,0.00,CLR,,0.00,WeatherDisplay:10.37,2013-02-18 01:03:00,
2013-02-17 20:08:00,19.4,-5.1,29.51,North,3,5.8,5.8,33,0.00,CLR,,0.00,WeatherDisplay:10.37,2013-02-18 01:08:00,
2013-02-17 20:13:00,19.6,-5.6,29.51,West,266,8.1,8.1,32,0.00,CLR,,0.00,WeatherDisplay:10.37,2013-02-18 01:13:00,
2013-02-17 20:18:00,19.4,-5.1,29.51,WNW,301,3.1,4.0,33,0.00,CLR,,0.00,WeatherDisplay:10.37,2013-02-18 01:18:00,
2013-02-17 20:23:00,19.4,-5.1,29.51,WSW,258,9.2,9.2,33,0.00,CLR,,0.00,WeatherDisplay:10.37,2013-02-18 01:23:00,
2013-02-17 20:28:00,19.4,-5.1,29.51,West,279,4.6,4.6,33,0.00,CLR,,0.00,WeatherDisplay:10.37,2013-02-18 01:28:00,
2013-02-17 20:33:00,19.4,-5.1,29.51,WSW,256,8.1,8.1,33,0.00,CLR,,0.00,WeatherDisplay:10.37,2013-02-18 01:33:00,
2013-02-17 20:38:00,19.2,-5.2,29.55,North,6,5.8,5.8,33,0.00,CLR,,0.00,WeatherDisplay:10.37,2013-02-18 01:38:00,
2013-02-17 20:43:00,19.2,-5.2,29.55,WSW,250,5.8,5.8,33,0.00,CLR,,0.00,WeatherDisplay:10.37,2013-02-18 01:43:00,
2013-02-17 20:48:00,19.2,-5.2,29.55,WSW,250,5.8,5.8,33,0.00,CLR,,0.00,WeatherDisplay:10.37,2013-02-18 01:48:00,
2013-02-17 20:53:00,19.2,-5.2,29.55,NW,306,8.1,8.1,33,0.00,CLR,,0.00,WeatherDisplay:10.37,2013-02-18 01:53:00,
2013-02-17 20:58:00,19.0,-5.4,29.55,NW,305,3.5,0.0,33,0.00,CLR,,0.00,WeatherDisplay:10.37,2013-02-18 01:58:00,
2013-02-17 21:03:00,19.0,-5.4,29.55,WNW,302,8.1,8.1,33,0.00,CLR,,0.00,WeatherDisplay:10.37,2013-02-18 02:03:00,
2013-02-17 21:08:00,18.9,-5.6,29.55,WNW,290,5.8,5.8,33,0.00,CLR,,0.00,WeatherDisplay:10.37,2013-02-18 02:08:00,
2013-02-17 21:13:00,18.9,-5.6,29.55,West,270,12.7,12.7,33,0.00,CLR,,0.00,WeatherDisplay:10.37,2013-02-18 02:13:00,
2013-02-17 21:18:00,18.7,-5.7,29.55,WNW,286,5.8,5.8,33,0.00,CLR,,0.00,WeatherDisplay:10.37,2013-02-18 02:18:00,
2013-02-17 21:23:00,18.7,-5.7,29.55,WSW,248,8.1,8.1,33,0.00,CLR,,0.00,WeatherDisplay:10.37,2013-02-18 02:23:00,
2013-02-17 21:28:00,18.3,-6.0,29.57,West,273,5.8,5.8,33,0.00,CLR,,0.00,WeatherDisplay:10.37,2013-02-18 02:28:00,
2013-02-17 21:33:00,18.3,-6.0,29.57,NNW,343,9.2,9.2,33,0.00,CLR,,0.00,WeatherDisplay:10.37,2013-02-18 02:33:00,
2013-02-17 21:38:00,18.1,-6.2,29.57,NNW,344,8.1,8.1,33,0.00,CLR,,0.00,WeatherDisplay:10.37,2013-02-18 02:38:00,
2013-02-17 21:43:00,18.0,-6.4,29.57,NNW,339,8.1,8.1,33,0.00,CLR,,0.00,WeatherDisplay:10.37,2013-02-18 02:43:00,
2013-02-17 21:48:00,17.8,-6.5,29.57,West,268,8.1,8.1,33,0.00,CLR,,0.00,WeatherDisplay:10.37,2013-02-18 02:48:00,
2013-02-17 21:53:00,17.8,-6.5,29.60,WNW,294,8.1,8.1,33,0.00,CLR,,0.00,WeatherDisplay:10.37,2013-02-18 02:53:00,
2013-02-17 21:58:00,17.6,-6.7,29.60,WSW,243,3.5,5.4,33,0.00,CLR,,0.00,WeatherDisplay:10.37,2013-02-18 02:58:00,
2013-02-17 22:03:00,17.6,-6.7,29.60,NW,304,8.1,8.1,33,0.00,CLR,,0.00,WeatherDisplay:10.37,2013-02-18 03:03:00,
2013-02-17 22:08:00,17.4,-6.8,29.60,NW,326,11.5,11.5,33,0.00,CLR,,0.00,WeatherDisplay:10.37,2013-02-18 03:08:00,
2013-02-17 22:13:00,17.2,-7.0,29.60,NW,311,8.1,8.1,33,0.00,CLR,,0.00,WeatherDisplay:10.37,2013-02-18 03:13:00,
2013-02-17 22:18:00,17.1,-7.2,29.60,NW,305,8.1,8.1,33,0.00,CLR,,0.00,WeatherDisplay:10.37,2013-02-18 03:18:00,
2013-02-17 22:23:00,17.1,-7.2,29.60,SSE,165,3.5,3.6,33,0.00,CLR,,0.00,WeatherDisplay:10.37,2013-02-18 03:23:00,
2013-02-17 22:28:00,16.9,-7.3,29.60,WNW,301,10.4,10.4,33,0.00,CLR,,0.00,WeatherDisplay:10.37,2013-02-18 03:28:00,
2013-02-17 22:33:00,16.9,-7.3,29.60,North,357,9.2,9.2,33,0.00,CLR,,0.00,WeatherDisplay:10.37,2013-02-18 03:33:00,
2013-02-17 22:38:00,16.7,-7.5,29.60,WNW,295,3.5,3.5,33,0.00,CLR,,0.00,WeatherDisplay:10.37,2013-02-18 03:38:00,
2013-02-17 22:43:00,16.7,-7.5,29.60,WNW,290,5.8,6.3,33,0.00,CLR,,0.00,WeatherDisplay:10.37,2013-02-18 03:43:00,
2013-02-17 22:48:00,16.5,-7.6,29.60,WNW,288,8.1,8.1,33,0.00,CLR,,0.00,WeatherDisplay:10.37,2013-02-18 03:48:00,
2013-02-17 22:53:00,16.3,-7.8,29.60,WNW,296,8.1,8.1,33,0.00,CLR,,0.00,WeatherDisplay:10.37,2013-02-18 03:53:00,
2013-02-17 22:58:00,16.2,-8.0,29.60,NNW,335,13.6,13.6,33,0.00,CLR,,0.00,WeatherDisplay:10.37,2013-02-18 03:58:00,
2013-02-17 23:03:00,16.2,-8.0,29.60,West,272,12.7,12.7,33,0.00,CLR,,0.00,WeatherDisplay:10.37,2013-02-18 04:03:00,
2013-02-17 23:08:00,16.0,-8.1,29.60,NNW,327,12.7,12.7,33,0.00,CLR,,0.00,WeatherDisplay:10.37,2013-02-18 04:08:00,
2013-02-17 23:13:00,16.0,-8.1,29.63,North,353,5.8,5.8,33,0.00,CLR,,0.00,WeatherDisplay:10.37,2013-02-18 04:13:00,
2013-02-17 23:18:00,15.8,-7.7,29.63,NW,321,5.8,5.8,34,0.00,CLR,,0.00,WeatherDisplay:10.37,2013-02-18 04:18:00,
2013-02-17 23:23:00,15.8,-7.7,29.63,WSW,256,10.4,10.4,34,0.00,CLR,,0.00,WeatherDisplay:10.37,2013-02-18 04:23:00,
2013-02-17 23:28:00,15.8,-7.7,29.63,WNW,288,12.7,12.7,34,0.00,CLR,,0.00,WeatherDisplay:10.37,2013-02-18 04:28:00,
2013-02-17 23:33:00,15.4,-8.0,29.63,South,187,9.2,9.2,34,0.00,CLR,,0.00,WeatherDisplay:10.37,2013-02-18 04:33:00,
2013-02-17 23:38:00,15.4,-6.8,29.63,WNW,286,8.1,8.1,36,0.00,CLR,,0.00,WeatherDisplay:10.37,2013-02-18 04:38:00,
2013-02-17 23:43:00,15.6,-7.8,29.63,North,5,3.5,4.9,34,0.00,CLR,,0.00,WeatherDisplay:10.37,2013-02-18 04:43:00,
2013-02-17 23:48:00,15.6,-7.8,29.63,NNW,331,11.5,12.7,34,0.00,CLR,,0.00,WeatherDisplay:10.37,2013-02-18 04:48:00,
2013-02-17 23:53:00,15.4,-8.0,29.63,North,357,3.5,5.8,34,0.00,CLR,,0.00,WeatherDisplay:10.37,2013-02-18 04:53:00,
2013-02-17 23:58:00,15.4,-8.0,29.63,WNW,301,4.6,4.6,34,0.00,CLR,,0.00,WeatherDisplay:10.37,2013-02-18 04:58:00,